Time;durP1;ratioP1;P1;durP2;ratioP2;P2;SDS_P1;SDS_P2;PMS_P1;PMS_P2;Temp;Humidity;BMP_temperature;BMP_pressure;BME280_temperature;BME280_humidity;BME280_pressure;Samples;Min_cycle;Max_cycle;Signal;HPM_P1;HPM_P2
2021/12/20 00:00:25;;;;;;;;;;;;;;;21.71;38.32;102829.03;7280239;19;152781;-50
2021/12/20 00:02:54;;;;;;;;;;;;;;;21.69;38.20;102834.06;7289512;19;152685;-50
2021/12/20 00:05:21;;;;;;;;;;;;;;;21.68;38.22;102827.56;7280844;19;152380;-50
2021/12/20 00:07:48;;;;;;;;;;;;;;;21.68;38.40;102827.56;7279467;19;155072;-51
2021/12/20 00:10:15;;;;;;;;;;;;;;;21.66;38.10;102827.03;7283969;19;154323;-50
2021/12/20 00:12:42;;;;;;;;;;;;;;;21.67;37.97;102825.03;7282698;19;152416;-50
2021/12/20 00:15:09;;;;;;;;;;;;;;;21.64;38.40;102817.13;7282368;19;153562;-50
2021/12/20 00:17:36;;;;;;;;;;;;;;;21.64;38.36;102817.13;7281134;19;153558;-51
2021/12/20 00:20:03;;;;;;;;;;;;;;;21.63;37.86;102818.25;7283999;19;152195;-50
2021/12/20 00:22:30;;;;;;;;;;;;;;;21.60;37.90;102824.44;7282868;19;152800;-50
2021/12/20 00:24:57;;;;;;;;;;;;;;;21.60;37.73;102818.78;7290535;19;154005;-49
2021/12/20 00:27:23;;;;;;;;;;;;;;;21.59;37.72;102811.47;7283281;19;151951;-50
2021/12/20 00:29:50;;;;;;;;;;;;;;;21.56;37.96;102801.63;7279424;19;153598;-50
2021/12/20 00:32:18;;;;;;;;;;;;;;;21.53;37.57;102804.94;7281606;19;152314;-51
2021/12/20 00:34:45;;;;;;;;;;;;;;;21.51;37.89;102812.84;7280192;19;153306;-50
2021/12/20 00:42:24;;;;;;;;;;;;;;;21.45;37.40;102799.00;7283180;19;152165;-51
2021/12/20 00:44:51;;;;;;;;;;;;;;;21.41;37.54;102798.69;7281123;19;152444;-50
2021/12/20 00:47:18;;;;;;;;;;;;;;;21.39;37.36;102791.66;7292236;19;151614;-50
2021/12/20 00:49:44;;;;;;;;;;;;;;;21.34;37.62;102795.28;7281663;19;154128;-50
2021/12/20 00:52:11;;;;;;;;;;;;;;;21.32;37.28;102794.66;7280164;19;152561;-50
2021/12/20 00:54:38;;;;;;;;;;;;;;;21.29;37.63;102782.00;7282271;19;152197;-50
2021/12/20 00:57:05;;;;;;;;;;;;;;;21.26;37.30;102790.13;7279726;19;153121;-50
2021/12/20 00:59:31;;;;;;;;;;;;;;;21.22;37.50;102788.97;7278415;19;152320;-50
2021/12/20 01:01:58;;;;;;;;;;;;;;;21.20;37.50;102788.41;7280568;19;153198;-51
2021/12/20 01:04:25;;;;;;;;;;;;;;;21.17;37.47;102786.09;7280620;19;153479;-50
2021/12/20 01:06:52;;;;;;;;;;;;;;;21.13;37.25;102785.81;7282349;19;152725;-49
2021/12/20 01:09:18;;;;;;;;;;;;;;;21.09;37.26;102779.00;7289325;19;152867;-49
2021/12/20 01:11:51;;;;;;;;;;;;;;;21.06;37.20;102787.97;7281779;19;152089;-50
2021/12/20 01:14:23;;;;;;;;;;;;;;;21.05;37.46;102779.78;7282395;19;153654;-50
2021/12/20 01:16:51;;;;;;;;;;;;;;;21.00;37.16;102776.94;7278399;19;153048;-50
2021/12/20 01:19:18;;;;;;;;;;;;;;;20.96;37.16;102771.00;7278967;19;152339;-50
2021/12/20 01:21:44;;;;;;;;;;;;;;;20.94;37.40;102769.59;7281570;19;153601;-50
2021/12/20 01:24:11;;;;;;;;;;;;;;;20.90;37.70;102765.59;7279813;19;152730;-50
2021/12/20 01:26:38;;;;;;;;;;;;;;;20.86;37.68;102768.09;7281099;19;152268;-50
2021/12/20 01:29:05;;;;;;;;;;;;;;;20.81;37.24;102763.28;7252737;19;160188;-50
2021/12/20 01:31:31;;;;;;;;;;;;;;;20.80;37.65;102764.38;7285304;19;153330;-51
2021/12/20 01:33:59;;;;;;;;;;;;;;;20.75;37.49;102761.53;7278986;19;153533;-50
2021/12/20 01:36:25;;;;;;;;;;;;;;;20.73;37.54;102772.19;7279203;19;153920;-50
2021/12/20 01:38:52;;;;;;;;;;;;;;;20.70;38.02;102769.91;7277371;19;151812;-50
2021/12/20 01:41:19;;;;;;;;;;;;;;;20.69;37.90;102762.59;7279211;19;152649;-51
2021/12/20 01:43:46;;;;;;;;;;;;;;;20.66;38.05;102765.94;7277745;19;155213;-51
2021/12/20 01:46:13;;;;;;;;;;;;;;;20.64;38.65;102764.50;7280543;19;152044;-51
2021/12/20 01:48:42;;;;;;;;;;;;;;;20.62;38.32;102766.75;7278743;19;154397;-50
2021/12/20 01:51:28;;;;;;;;;;;;;;;20.58;38.44;102766.41;7278823;19;153339;-50
2021/12/20 01:53:56;;;;;;;;;;;;;;;20.54;38.81;102758.78;7286147;19;152564;-50
2021/12/20 01:56:24;;;;;;;;;;;;;;;20.54;38.80;102758.78;7268729;19;156155;-50
2021/12/20 01:58:51;;;;;;;;;;;;;;;20.49;38.99;102765.19;7277694;19;152538;-50
2021/12/20 02:01:19;;;;;;;;;;;;;;;20.49;39.11;102769.97;7274997;19;152086;-50
2021/12/20 02:03:49;;;;;;;;;;;;;;;20.45;39.13;102761.19;7275989;19;153748;-50
2021/12/20 02:08:55;;;;;;;;;;;;;;;20.41;39.50;102760.88;7276049;19;152930;-50
2021/12/20 02:11:22;;;;;;;;;;;;;;;20.38;39.59;102761.44;7286493;19;152705;-50
2021/12/20 02:13:49;;;;;;;;;;;;;;;20.35;39.45;102769.53;7301765;19;151727;-50
2021/12/20 02:16:17;;;;;;;;;;;;;;;20.33;39.39;102760.50;7292084;19;153812;-49
2021/12/20 02:18:44;;;;;;;;;;;;;;;20.28;39.88;102761.28;7290148;19;152658;-51
2021/12/20 02:21:11;;;;;;;;;;;;;;;20.28;39.86;102752.00;7293139;19;152252;-50
2021/12/20 02:23:38;;;;;;;;;;;;;;;20.24;39.70;102751.69;7291781;19;152804;-49
2021/12/20 02:26:05;;;;;;;;;;;;;;;20.21;39.64;102745.75;7290035;19;152390;-50
2021/12/20 02:28:38;;;;;;;;;;;;;;;20.18;39.75;102746.25;7292219;19;152313;-50
2021/12/20 02:38:57;;;;;;;;;;;;;;;20.12;40.55;102747.31;7293185;19;152593;-50
2021/12/20 02:41:29;;;;;;;;;;;;;;;20.10;40.11;102744.78;7293235;19;153573;-50
2021/12/20 02:43:59;;;;;;;;;;;;;;;20.06;40.25;102738.00;7289531;19;154524;-50
2021/12/20 02:46:46;;;;;;;;;;;;;;;20.03;40.57;102732.06;7290104;19;152684;-50
2021/12/20 02:49:14;;;;;;;;;;;;;;;20.00;40.33;102730.59;7292886;19;152658;-50
2021/12/20 02:51:42;;;;;;;;;;;;;;;20.01;40.81;102734.25;7289290;19;153066;-51
2021/12/20 02:54:13;;;;;;;;;;;;;;;19.97;40.81;102725.53;7292324;19;152211;-50
2021/12/20 02:56:41;;;;;;;;;;;;;;;19.93;40.63;102728.00;7290107;19;152834;-50
2021/12/20 02:59:08;;;;;;;;;;;;;;;19.92;40.69;102726.31;7294825;19;156863;-50
2021/12/20 03:01:36;;;;;;;;;;;;;;;19.90;40.50;102713.63;7289090;19;153308;-50
2021/12/20 03:04:02;;;;;;;;;;;;;;;19.88;40.61;102722.34;7288587;19;152673;-50
2021/12/20 03:06:39;;;;;;;;;;;;;;;19.85;40.67;102717.22;7289263;19;152642;-50
2021/12/20 03:09:06;;;;;;;;;;;;;;;19.81;40.74;102716.06;7292687;19;152838;-50
2021/12/20 03:11:35;;;;;;;;;;;;;;;19.83;40.82;102698.97;7289695;19;154871;-50
2021/12/20 03:16:38;;;;;;;;;;;;;;;19.75;41.08;102705.91;7289938;19;153241;-50
2021/12/20 03:19:05;;;;;;;;;;;;;;;19.72;41.29;102697.97;7290539;19;153478;-50
2021/12/20 03:21:32;;;;;;;;;;;;;;;19.69;40.94;102701.31;7296997;19;151946;-50
2021/12/20 03:23:59;;;;;;;;;;;;;;;19.67;41.24;102692.31;7280090;19;152312;-50
2021/12/20 03:26:26;;;;;;;;;;;;;;;19.63;40.96;102690.28;7283560;19;151945;-50
2021/12/20 03:28:53;;;;;;;;;;;;;;;19.61;40.94;102695.31;7283603;19;153874;-50
2021/12/20 03:31:19;;;;;;;;;;;;;;;19.59;41.31;102691.91;7258094;19;154040;-49
2021/12/20 03:33:46;;;;;;;;;;;;;;;19.59;41.23;102694.72;7279562;19;152608;-49
2021/12/20 03:36:13;;;;;;;;;;;;;;;19.55;41.42;102694.41;7282325;19;152584;-50
2021/12/20 03:38:39;;;;;;;;;;;;;;;19.57;41.55;102685.72;7282513;19;155162;-50
2021/12/20 03:41:06;;;;;;;;;;;;;;;19.53;41.48;102685.41;7281627;19;152151;-50
2021/12/20 03:43:34;;;;;;;;;;;;;;;19.49;41.46;102684.22;7290064;19;152273;-50
2021/12/20 03:46:02;;;;;;;;;;;;;;;19.46;41.68;102685.59;7281483;19;152474;-51
2021/12/20 03:48:28;;;;;;;;;;;;;;;19.47;41.50;102686.44;7282553;19;153000;-50
2021/12/20 03:50:56;;;;;;;;;;;;;;;19.44;41.71;102684.16;7281891;19;153746;-50
2021/12/20 03:53:23;;;;;;;;;;;;;;;19.39;41.90;102682.09;7283049;19;151777;-50
2021/12/20 03:55:49;;;;;;;;;;;;;;;19.38;41.70;102677.59;7280859;19;153406;-50
2021/12/20 03:58:16;;;;;;;;;;;;;;;19.38;41.86;102676.75;7279918;19;152776;-50
2021/12/20 04:00:43;;;;;;;;;;;;;;;19.35;42.02;102669.69;7280369;19;151952;-50
2021/12/20 04:03:13;;;;;;;;;;;;;;;19.35;41.78;102668.88;7282069;19;153107;-50
2021/12/20 04:05:40;;;;;;;;;;;;;;;19.33;41.83;102666.31;7286780;19;152289;-50
2021/12/20 04:08:08;;;;;;;;;;;;;;;19.33;42.09;102662.66;7285076;19;151800;-50
2021/12/20 04:10:34;;;;;;;;;;;;;;;19.28;42.25;102668.19;7281574;19;153456;-49
2021/12/20 04:13:01;;;;;;;;;;;;;;;19.29;42.09;102675.50;7282557;19;152056;-50
2021/12/20 04:15:28;;;;;;;;;;;;;;;19.27;42.06;102655.28;7262912;19;153352;-50
2021/12/20 04:17:55;;;;;;;;;;;;;;;19.24;42.14;102656.66;7276180;19;153863;-50
2021/12/20 04:20:22;;;;;;;;;;;;;;;19.24;42.31;102667.84;7279882;19;151996;-50
2021/12/20 04:22:49;;;;;;;;;;;;;;;19.22;42.30;102670.06;7280537;19;152739;-50
2021/12/20 04:25:16;;;;;;;;;;;;;;;19.21;42.24;102671.19;7287894;19;153605;-50
2021/12/20 04:27:47;;;;;;;;;;;;;;;19.20;42.50;102669.47;7281106;19;152239;-50
2021/12/20 04:30:14;;;;;;;;;;;;;;;19.19;42.42;102675.34;7280331;19;153907;-50
2021/12/20 04:32:44;;;;;;;;;;;;;;;19.17;42.41;102664.38;7283827;19;152123;-51
2021/12/20 04:35:12;;;;;;;;;;;;;;;19.19;42.19;102664.13;7272815;19;153791;-51
2021/12/20 04:37:41;;;;;;;;;;;;;;;19.13;42.15;102671.59;7278692;19;153798;-50
2021/12/20 04:40:11;;;;;;;;;;;;;;;19.16;42.36;102673.91;7278172;19;151893;-50
2021/12/20 04:42:38;;;;;;;;;;;;;;;19.19;42.42;102669.72;7281765;19;153289;-50
2021/12/20 04:45:05;;;;;;;;;;;;;;;19.23;42.45;102670.91;7283865;19;152864;-50
2021/12/20 04:47:32;;;;;;;;;;;;;;;19.25;42.50;102680.78;7295918;19;151962;-50
2021/12/20 04:49:59;;;;;;;;;;;;;;;19.28;42.78;102677.44;7266960;19;153379;-49
2021/12/20 04:52:26;;;;;;;;;;;;;;;19.33;42.49;102665.47;7283324;19;151836;-50
2021/12/20 04:54:53;;;;;;;;;;;;;;;19.37;42.95;102678.69;7283020;19;153054;-50
2021/12/20 04:57:20;;;;;;;;;;;;;;;19.43;42.70;102677.69;7282709;19;152760;-50
2021/12/20 04:59:47;;;;;;;;;;;;;;;19.49;42.43;102675.78;7283640;19;151526;-51
2021/12/20 05:02:13;;;;;;;;;;;;;;;19.54;42.66;102671.13;7283896;19;152836;-50
2021/12/20 05:04:42;;;;;;;;;;;;;;;19.61;42.60;102670.09;7278699;19;153774;-49
2021/12/20 05:07:09;;;;;;;;;;;;;;;19.67;42.49;102666.25;7284054;19;152045;-50
2021/12/20 05:09:39;;;;;;;;;;;;;;;19.73;42.50;102666.03;7282189;19;152977;-50
2021/12/20 05:14:43;;;;;;;;;;;;;;;19.87;42.34;102661.72;7282052;19;153156;-50
2021/12/20 05:17:10;;;;;;;;;;;;;;;19.92;41.89;102661.78;7257563;19;154430;-50
2021/12/20 05:19:38;;;;;;;;;;;;;;;19.99;41.73;102658.75;7279216;19;152786;-50
2021/12/20 05:22:05;;;;;;;;;;;;;;;20.05;41.65;102659.69;7284201;19;154235;-50
2021/12/20 05:24:32;;;;;;;;;;;;;;;20.10;41.70;102657.78;7279801;19;155063;-50
2021/12/20 05:26:58;;;;;;;;;;;;;;;20.17;41.71;102655.59;7281567;19;151940;-50
2021/12/20 05:29:25;;;;;;;;;;;;;;;20.21;41.42;102653.97;7283536;19;153602;-50
2021/12/20 05:31:53;;;;;;;;;;;;;;;20.27;41.36;102644.47;7289537;19;154097;-50
2021/12/20 05:34:20;;;;;;;;;;;;;;;20.33;41.27;102656.66;7279625;19;154287;-50
2021/12/20 05:36:47;;;;;;;;;;;;;;;20.39;41.54;102658.41;7278132;19;154477;-50
2021/12/20 05:39:14;;;;;;;;;;;;;;;20.44;41.26;102654.78;7281394;19;152121;-50
2021/12/20 05:41:41;;;;;;;;;;;;;;;20.48;41.08;102639.97;7279582;19;152681;-50
2021/12/20 05:44:07;;;;;;;;;;;;;;;20.53;41.33;102650.38;7281981;19;153818;-50
2021/12/20 05:46:34;;;;;;;;;;;;;;;20.58;41.27;102647.63;7281480;19;152306;-50
2021/12/20 05:49:01;;;;;;;;;;;;;;;20.62;41.24;102654.41;7282268;19;152144;-50
2021/12/20 05:51:29;;;;;;;;;;;;;;;20.68;40.91;102653.31;7281832;19;154259;-50
2021/12/20 05:53:55;;;;;;;;;;;;;;;20.71;40.95;102650.84;7290898;19;152145;-49
2021/12/20 05:56:22;;;;;;;;;;;;;;;20.74;40.80;102653.09;7282454;19;153359;-51
2021/12/20 05:58:49;;;;;;;;;;;;;;;20.79;41.05;102655.94;7283315;19;152856;-50
2021/12/20 06:01:15;;;;;;;;;;;;;;;20.82;40.92;102658.22;7278522;19;152589;-50
2021/12/20 06:03:42;;;;;;;;;;;;;;;20.86;40.91;102648.13;7281740;19;153235;-49
2021/12/20 06:06:09;;;;;;;;;;;;;;;20.91;40.78;102658.56;7282886;19;152270;-50
2021/12/20 06:08:36;;;;;;;;;;;;;;;20.95;40.60;102654.09;7282796;19;153443;-50
2021/12/20 06:11:02;;;;;;;;;;;;;;;20.98;40.77;102652.72;7284046;19;153646;-50
2021/12/20 06:13:31;;;;;;;;;;;;;;;21.03;40.48;102652.75;7291234;19;152070;-50
2021/12/20 06:15:57;;;;;;;;;;;;;;;21.05;40.54;102662.59;7261719;19;154818;-49
2021/12/20 06:18:24;;;;;;;;;;;;;;;21.08;40.21;102662.06;7277425;19;152158;-50
2021/12/20 06:20:51;;;;;;;;;;;;;;;21.12;40.64;102663.19;7278093;19;152685;-49
2021/12/20 06:23:17;;;;;;;;;;;;;;;21.14;40.47;102658.19;7279560;19;153456;-50
2021/12/20 06:25:44;;;;;;;;;;;;;;;21.19;40.41;102660.19;7281023;19;151798;-51
2021/12/20 06:28:11;;;;;;;;;;;;;;;21.21;40.26;102667.22;7282615;19;152688;-50
2021/12/20 06:30:38;;;;;;;;;;;;;;;21.26;40.01;102672.03;7279025;19;153373;-50
2021/12/20 06:33:05;;;;;;;;;;;;;;;21.29;40.31;102668.69;7279234;19;151719;-50
2021/12/20 06:35:33;;;;;;;;;;;;;;;21.32;40.16;102670.97;7284987;19;154046;-50
2021/12/20 06:38:02;;;;;;;;;;;;;;;21.34;40.28;102674.38;7278789;19;152358;-50
2021/12/20 06:40:29;;;;;;;;;;;;;;;21.36;40.20;102669.28;7281074;19;154014;-50
2021/12/20 06:42:56;;;;;;;;;;;;;;;21.40;39.79;102673.25;7276663;19;154650;-50
2021/12/20 06:45:23;;;;;;;;;;;;;;;21.42;40.06;102670.19;7281603;19;151627;-51
2021/12/20 06:47:50;;;;;;;;;;;;;;;21.47;39.93;102673.88;7281699;19;152625;-50
2021/12/20 06:50:17;;;;;;;;;;;;;;;21.48;39.71;102672.75;7278202;19;152324;-51
2021/12/20 06:52:44;;;;;;;;;;;;;;;21.50;39.61;102670.50;7278969;19;152080;-50
2021/12/20 06:55:10;;;;;;;;;;;;;;;21.53;39.57;102664.31;7279471;19;153395;-50
2021/12/20 06:57:39;;;;;;;;;;;;;;;21.55;39.49;102664.91;7287571;19;153256;-50
2021/12/20 07:00:08;;;;;;;;;;;;;;;21.58;39.50;102671.94;7288209;19;153380;-50
2021/12/20 07:02:34;;;;;;;;;;;;;;;21.60;39.74;102658.47;7285218;19;153784;-50
2021/12/20 07:05:02;;;;;;;;;;;;;;;21.63;39.65;102663.53;7283756;19;152012;-50
2021/12/20 07:07:29;;;;;;;;;;;;;;;21.66;39.54;102654.56;7286171;19;153510;-50
2021/12/20 07:09:57;;;;;;;;;;;;;;;21.67;39.58;102670.28;7286756;19;153319;-49
2021/12/20 07:12:23;;;;;;;;;;;;;;;21.70;39.50;102664.13;7285799;19;151832;-50
2021/12/20 07:14:51;;;;;;;;;;;;;;;21.73;39.42;102664.44;7287009;19;152597;-50
2021/12/20 07:17:19;;;;;;;;;;;;;;;21.74;39.24;102657.69;7286869;19;152366;-50
2021/12/20 07:19:46;;;;;;;;;;;;;;;21.78;39.28;102659.94;7292195;19;151889;-51
2021/12/20 07:22:13;;;;;;;;;;;;;;;21.79;39.44;102659.69;7282937;19;153501;-50
2021/12/20 07:24:39;;;;;;;;;;;;;;;21.81;39.18;102662.19;7288296;19;151985;-50
2021/12/20 07:27:08;;;;;;;;;;;;;;;21.83;39.14;102668.41;7287406;19;152446;-50
2021/12/20 07:29:35;;;;;;;;;;;;;;;21.85;39.31;102669.00;7286407;19;154475;-50
2021/12/20 07:32:02;;;;;;;;;;;;;;;21.88;39.41;102665.63;7287511;19;151822;-49
2021/12/20 07:34:29;;;;;;;;;;;;;;;21.90;39.09;102666.16;7287575;19;153786;-50
2021/12/20 07:36:56;;;;;;;;;;;;;;;21.92;39.02;102661.97;7285596;19;152222;-50
2021/12/20 07:39:22;;;;;;;;;;;;;;;21.92;39.36;102670.41;7285681;19;151957;-50
2021/12/20 07:41:51;;;;;;;;;;;;;;;21.92;39.33;102664.78;7292597;19;151990;-50
2021/12/20 07:44:18;;;;;;;;;;;;;;;21.92;38.97;102661.97;7287880;19;152005;-50
2021/12/20 07:46:45;;;;;;;;;;;;;;;21.93;39.31;102669.34;7286299;19;152846;-50
2021/12/20 07:49:12;;;;;;;;;;;;;;;21.93;39.22;102665.66;7285125;19;153529;-50
2021/12/20 07:51:39;;;;;;;;;;;;;;;21.92;39.24;102664.78;7285346;19;152319;-49
2021/12/20 07:54:06;;;;;;;;;;;;;;;21.92;39.22;102666.75;7288417;19;152909;-50
2021/12/20 07:56:32;;;;;;;;;;;;;;;21.91;38.88;102670.69;7283170;19;152271;-51
2021/12/20 07:58:59;;;;;;;;;;;;;;;21.88;39.16;102660.84;7285322;19;153138;-51
2021/12/20 08:01:27;;;;;;;;;;;;;;;21.87;38.87;102663.91;7284099;19;153375;-50
2021/12/20 08:03:54;;;;;;;;;;;;;;;21.86;39.16;102668.69;7292554;19;152704;-50
2021/12/20 08:06:21;;;;;;;;;;;;;;;21.84;39.20;102670.97;7286263;19;152444;-50
2021/12/20 08:08:48;;;;;;;;;;;;;;;21.84;39.03;102664.47;7285715;19;154034;-50
2021/12/20 08:11:15;;;;;;;;;;;;;;;21.83;38.88;102658.00;7285335;19;151918;-49
2021/12/20 08:13:45;;;;;;;;;;;;;;;21.81;38.86;102653.75;7288997;19;153451;-49
2021/12/20 08:16:12;;;;;;;;;;;;;;;21.79;39.12;102659.69;7285277;19;153407;-49
2021/12/20 08:18:40;;;;;;;;;;;;;;;21.78;39.07;102669.22;7284857;19;151820;-50
2021/12/20 08:21:07;;;;;;;;;;;;;;;21.76;38.82;102676.28;7284669;19;152009;-50
2021/12/20 08:23:34;;;;;;;;;;;;;;;21.73;39.10;102664.44;7288879;19;153160;-50
2021/12/20 08:26:01;;;;;;;;;;;;;;;21.70;38.87;102673.44;7286531;19;152848;-50
2021/12/20 08:28:28;;;;;;;;;;;;;;;21.69;38.88;102670.88;7285748;19;153830;-50
2021/12/20 08:30:55;;;;;;;;;;;;;;;21.67;39.18;102675.91;7286190;19;151779;-50
2021/12/20 08:33:22;;;;;;;;;;;;;;;21.64;39.20;102674.50;7286043;19;152724;-50
2021/12/20 08:35:49;;;;;;;;;;;;;;;21.63;39.02;102674.78;7282957;19;152393;-50
2021/12/20 08:38:17;;;;;;;;;;;;;;;21.59;39.15;102671.66;7287087;19;152179;-50
2021/12/20 08:40:44;;;;;;;;;;;;;;;21.59;38.99;102666.06;7286622;19;153025;-49
2021/12/20 08:43:11;;;;;;;;;;;;;;;21.56;39.14;102668.56;7285064;19;154086;-50
2021/12/20 08:45:38;;;;;;;;;;;;;;;21.52;39.19;102679.53;7291454;19;151825;-50
2021/12/20 08:48:05;;;;;;;;;;;;;;;21.50;39.28;102678.94;7283084;19;154284;-50
2021/12/20 08:50:32;;;;;;;;;;;;;;;21.47;39.09;102679.50;7286496;19;151792;-50
2021/12/20 08:52:59;;;;;;;;;;;;;;;21.46;39.61;102674.13;7284521;19;152428;-49
2021/12/20 08:55:26;;;;;;;;;;;;;;;21.43;39.65;102674.69;7283518;19;153592;-50
2021/12/20 08:57:53;;;;;;;;;;;;;;;21.37;39.65;102670.16;7283723;19;151889;-51
2021/12/20 09:00:21;;;;;;;;;;;;;;;21.34;39.39;102679.97;7286499;19;153315;-50
2021/12/20 09:02:48;;;;;;;;;;;;;;;21.32;39.47;102679.41;7280104;19;154523;-50
2021/12/20 09:05:16;;;;;;;;;;;;;;;21.30;39.33;102678.84;7281829;19;151833;-50
2021/12/20 09:07:43;;;;;;;;;;;;;;;21.24;39.35;102677.94;7291916;19;153186;-51
2021/12/20 09:10:11;;;;;;;;;;;;;;;21.23;39.61;102681.03;7284948;19;152212;-50
2021/12/20 09:12:38;;;;;;;;;;;;;;;21.21;39.68;102677.66;7283601;19;153187;-50
2021/12/20 09:15:06;;;;;;;;;;;;;;;21.17;39.84;102677.31;7285576;19;154377;-50
2021/12/20 09:17:33;;;;;;;;;;;;;;;21.16;39.57;102686.06;7285264;19;152497;-50
2021/12/20 09:20:00;;;;;;;;;;;;;;;21.13;39.50;102686.56;7283917;19;153076;-50
2021/12/20 09:22:29;;;;;;;;;;;;;;;21.11;40.03;102688.78;7280642;19;153246;-50
2021/12/20 09:24:56;;;;;;;;;;;;;;;21.09;40.10;102693.81;7282398;19;153214;-50
2021/12/20 09:27:23;;;;;;;;;;;;;;;21.04;39.91;102693.78;7282478;19;152540;-50
2021/12/20 09:29:50;;;;;;;;;;;;;;;21.01;40.09;102694.31;7291292;19;152257;-49
2021/12/20 09:32:16;;;;;;;;;;;;;;;20.99;40.05;102693.72;7285458;19;152730;-50
2021/12/20 09:34:43;;;;;;;;;;;;;;;20.95;39.94;102692.59;7281914;19;155787;-51
2021/12/20 09:37:10;;;;;;;;;;;;;;;20.93;39.91;102698.50;7282898;19;153581;-50
2021/12/20 09:39:38;;;;;;;;;;;;;;;20.89;39.90;102696.50;7283534;19;152818;-50
2021/12/20 09:42:07;;;;;;;;;;;;;;;20.86;39.78;102687.47;7281879;19;154473;-50
2021/12/20 09:44:34;;;;;;;;;;;;;;;20.83;40.34;102701.22;7285937;19;152056;-50
2021/12/20 09:47:01;;;;;;;;;;;;;;;20.80;40.32;102694.16;7282643;19;153463;-50
2021/12/20 09:49:32;;;;;;;;;;;;;;;20.78;40.17;102690.78;7284210;19;153314;-51
2021/12/20 09:51:59;;;;;;;;;;;;;;;20.74;40.19;102689.63;7292457;19;151624;-50
2021/12/20 09:54:27;;;;;;;;;;;;;;;20.72;40.50;102691.84;7283368;19;154028;-50
2021/12/20 09:56:55;;;;;;;;;;;;;;;20.69;40.20;102700.81;7283608;19;152155;-49
2021/12/20 09:59:24;;;;;;;;;;;;;;;20.68;40.29;102704.72;7287149;19;151951;-50
2021/12/20 10:01:52;;;;;;;;;;;;;;;20.65;40.15;102701.59;7282125;19;153895;-51
2021/12/20 10:04:20;;;;;;;;;;;;;;;20.60;40.33;102698.75;7283798;19;151689;-49
2021/12/20 10:06:56;;;;;;;;;;;;;;;20.57;40.51;102696.47;7281632;19;152629;-50
2021/12/20 10:09:27;;;;;;;;;;;;;;;20.56;40.15;102703.19;7281389;19;155061;-50
2021/12/20 10:12:04;;;;;;;;;;;;;;;20.53;40.42;102701.78;7283940;19;152535;-49
2021/12/20 10:14:30;;;;;;;;;;;;;;;20.50;40.43;102704.25;7288501;19;153129;-50
2021/12/20 10:17:02;;;;;;;;;;;;;;;20.46;40.49;102692.72;7284709;19;152674;-50
2021/12/20 10:19:31;;;;;;;;;;;;;;;20.41;40.25;102701.06;7282142;19;152971;-50
2021/12/20 10:21:59;;;;;;;;;;;;;;;20.39;40.31;102700.50;7279549;19;152625;-50
2021/12/20 10:24:34;;;;;;;;;;;;;;;20.36;40.22;102704.69;7282460;19;151800;-50
2021/12/20 10:27:01;;;;;;;;;;;;;;;20.32;40.37;102708.28;7284251;19;152662;-51
2021/12/20 10:29:28;;;;;;;;;;;;;;;20.30;40.59;102691.72;7281285;19;153472;-50
2021/12/20 10:31:55;;;;;;;;;;;;;;;20.26;40.36;102692.50;7285941;19;151625;-50
2021/12/20 10:34:32;;;;;;;;;;;;;;;20.21;40.80;102695.22;7296761;19;153614;-50
2021/12/20 10:37:01;;;;;;;;;;;;;;;20.22;40.55;102694.94;7289070;19;152448;-50
2021/12/20 10:39:37;;;;;;;;;;;;;;;20.18;40.41;102690.97;7289999;19;152224;-50
2021/12/20 10:42:14;;;;;;;;;;;;;;;20.14;40.47;102687.00;7285485;19;154132;-50
2021/12/20 10:44:41;;;;;;;;;;;;;;;20.13;40.90;102687.25;7289084;19;151824;-51
2021/12/20 10:47:23;;;;;;;;;;;;;;;20.11;40.86;102686.69;7290067;19;153838;-50
2021/12/20 10:49:50;;;;;;;;;;;;;;;20.07;40.61;102696.75;7288508;19;155788;-49
2021/12/20 10:52:25;;;;;;;;;;;;;;;20.07;40.98;102691.13;7289950;19;152374;-50
2021/12/20 10:54:52;;;;;;;;;;;;;;;20.03;41.00;102688.00;7288897;19;151627;-50
2021/12/20 10:57:29;;;;;;;;;;;;;;;20.02;40.82;102694.72;7295715;19;152790;-50
2021/12/20 11:00:05;;;;;;;;;;;;;;;20.01;40.90;102694.97;7286181;19;152008;-50
2021/12/20 11:05:21;;;;;;;;;;;;;;;19.97;41.01;102683.44;7287561;19;151970;-50
2021/12/20 11:10:26;;;;;;;;;;;;;;;19.91;40.75;102687.28;7287358;19;152965;-50
2021/12/20 11:12:53;;;;;;;;;;;;;;;19.89;40.96;102687.56;7288740;19;152144;-50
2021/12/20 11:15:20;;;;;;;;;;;;;;;19.88;40.91;102682.22;7288670;19;152138;-50
2021/12/20 11:17:47;;;;;;;;;;;;;;;19.86;41.14;102685.25;7287872;19;153326;-50
2021/12/20 11:20:17;;;;;;;;;;;;;;;19.83;41.25;102685.81;7294037;19;151897;-50
2021/12/20 11:22:44;;;;;;;;;;;;;;;19.83;41.18;102688.59;7285749;19;152306;-50
2021/12/20 11:25:11;;;;;;;;;;;;;;;19.79;40.98;102681.81;7286881;19;151654;-49
2021/12/20 11:27:41;;;;;;;;;;;;;;;19.80;40.88;102677.06;7289500;19;154605;-50
2021/12/20 11:30:10;;;;;;;;;;;;;;;19.80;40.99;102671.47;7285416;19;153479;-49
2021/12/20 11:32:38;;;;;;;;;;;;;;;19.82;40.85;102670.06;7287294;19;152229;-50
2021/12/20 11:35:08;;;;;;;;;;;;;;;19.83;41.03;102671.78;7288769;19;153288;-50
2021/12/20 11:37:35;;;;;;;;;;;;;;;19.88;41.41;102669.03;7286066;19;154295;-50
2021/12/20 11:40:03;;;;;;;;;;;;;;;19.93;41.05;102659.84;7288486;19;151953;-50
2021/12/20 11:42:30;;;;;;;;;;;;;;;19.95;41.47;102664.06;7290828;19;152739;-50
2021/12/20 11:44:59;;;;;;;;;;;;;;;20.00;41.44;102654.84;7284458;19;152737;-49
2021/12/20 11:47:35;;;;;;;;;;;;;;;20.04;41.47;102658.81;7287510;19;152157;-52
2021/12/20 11:50:02;;;;;;;;;;;;;;;20.09;41.47;102656.06;7286259;19;153790;-49
2021/12/20 11:52:30;;;;;;;;;;;;;;;20.15;41.17;102657.00;7288293;19;151940;-50
2021/12/20 11:54:57;;;;;;;;;;;;;;;20.20;40.86;102655.09;7288100;19;152650;-49
2021/12/20 11:57:33;;;;;;;;;;;;;;;20.26;40.72;102650.38;7285423;19;153712;-49
2021/12/20 12:00:09;;;;;;;;;;;;;;;20.31;40.73;102656.91;7287718;19;152049;-51
2021/12/20 12:02:40;;;;;;;;;;;;;;;20.37;40.86;102650.25;7288660;19;152816;-52
2021/12/20 12:05:07;;;;;;;;;;;;;;;20.45;40.36;102653.66;7293438;19;153928;-49
2021/12/20 12:07:37;;;;;;;;;;;;;;;20.50;40.80;102654.56;7288226;19;153644;-50
2021/12/20 12:10:07;;;;;;;;;;;;;;;20.56;40.38;102650.69;7284245;19;153244;-49
2021/12/20 12:12:39;;;;;;;;;;;;;;;20.61;40.27;102647.94;7286317;19;151920;-49
2021/12/20 12:15:09;;;;;;;;;;;;;;;20.66;40.15;102653.59;7266094;19;155657;-50
2021/12/20 12:17:56;;;;;;;;;;;;;;;20.72;40.34;102657.28;7280967;19;154004;-49
2021/12/20 12:20:34;;;;;;;;;;;;;;;20.76;39.97;102639.63;7284788;19;152306;-49
2021/12/20 12:23:11;;;;;;;;;;;;;;;20.81;40.12;102639.66;7286324;19;152621;-50
2021/12/20 12:25:40;;;;;;;;;;;;;;;20.85;39.88;102640.81;7286344;19;153779;-50
2021/12/20 12:28:08;;;;;;;;;;;;;;;20.90;39.87;102640.00;7293991;19;151970;-50
2021/12/20 12:30:35;;;;;;;;;;;;;;;20.96;39.48;102629.66;7283909;19;152766;-50
2021/12/20 12:33:02;;;;;;;;;;;;;;;21.02;39.49;102631.38;7287333;19;152977;-49
2021/12/20 12:35:39;;;;;;;;;;;;;;;21.05;39.51;102636.47;7286419;19;155227;-50
2021/12/20 12:38:17;;;;;;;;;;;;;;;21.10;39.65;102630.88;7284547;19;156857;-50
2021/12/20 12:40:48;;;;;;;;;;;;;;;21.14;39.31;102629.25;7285926;19;151759;-50
2021/12/20 12:43:16;;;;;;;;;;;;;;;21.18;39.13;102621.94;7282464;19;153364;-50
2021/12/20 12:45:48;;;;;;;;;;;;;;;21.21;39.38;102619.44;7283486;19;153498;-50
2021/12/20 12:48:24;;;;;;;;;;;;;;;21.24;39.11;102615.25;7293551;19;152339;-50
2021/12/20 12:50:50;;;;;;;;;;;;;;;21.29;38.76;102626.53;7284754;19;154247;-51
2021/12/20 12:53:27;;;;;;;;;;;;;;;21.36;39.23;102617.84;7286076;19;152225;-50
2021/12/20 12:55:53;;;;;;;;;;;;;;;21.39;39.22;102615.34;7282265;19;152643;-50
2021/12/20 12:58:21;;;;;;;;;;;;;;;21.41;38.93;102613.09;7282986;19;153832;-50